Time;durP1;ratioP1;P1;durP2;ratioP2;P2;SDS_P1;SDS_P2;PMS_P1;PMS_P2;Temp;Humidity;BMP_temperature;BMP_pressure;BME280_temperature;BME280_humidity;BME280_pressure;Samples;Min_cycle;Max_cycle;Signal;HPM_P1;HPM_P2
2022/06/02 00:01:19;;;;;;;;;;;;;;;;;;5115465;28;19908;-75
2022/06/02 00:03:45;;;;;;;;;;;;;;;;;;5116131;28;20384;-75
2022/06/02 00:06:11;;;;;;;;;;;;;;;;;;5115775;28;20271;-75
2022/06/02 00:08:37;;;;;;;;;;;;;;;;;;5097197;28;19907;-76
2022/06/02 00:11:03;;;;;;;;;;;;;;;;;;5115391;28;19918;-75
2022/06/02 00:13:29;;;;;;;;;;;;;;;;;;5115387;28;20383;-75
2022/06/02 00:15:55;;;;;;;;;;;;;;;;;;5096851;28;19907;-75
2022/06/02 00:18:21;;;;;;;;;;;;;;;;;;5115294;28;19916;-75
2022/06/02 00:20:47;;;;;;;;;;;;;;;;;;5115223;28;19912;-73
2022/06/02 00:23:13;;;;;;;;;;;;;;;;;;5115178;28;20387;-75
2022/06/02 00:25:38;;;;;;;;;;;;;;;;;;5096638;28;19963;-74
2022/06/02 00:28:04;;;;;;;;;;;;;;;;;;5115684;28;20276;-75
2022/06/02 00:30:30;;;;;;;;;;;;;;;;;;5114994;28;19908;-76
2022/06/02 00:32:56;;;;;;;;;;;;;;;;;;5115621;28;19962;-74
2022/06/02 00:35:22;;;;;;;;;;;;;;;;;;5114988;28;19915;-74
2022/06/02 00:37:48;;;;;;;;;;;;;;;;;;5114934;28;19908;-74
2022/06/02 00:40:14;;;;;;;;;;;;;;;;;;5115183;28;20282;-74
2022/06/02 00:42:40;;;;;;;;;;;;;;;;;;5114809;28;20276;-74
2022/06/02 00:45:06;;;;;;;;;;;;;;;;;;5115369;28;19918;-75
2022/06/02 00:47:32;;;;;;;;;;;;;;;;;;5114733;28;19908;-74
2022/06/02 00:49:57;;;;;;;;;;;;;;;;;;5114700;28;19951;-75
2022/06/02 00:52:23;;;;;;;;;;;;;;;;;;5096230;28;19918;-75
2022/06/02 00:57:35;;;;;;;;;;;;;;;;;;5114963;28;19915;-75
2022/06/02 01:00:01;;;;;;;;;;;;;;;;;;5114544;28;19908;-74
2022/06/02 01:02:26;;;;;;;;;;;;;;;;;;5114301;28;20368;-75
2022/06/02 01:04:52;;;;;;;;;;;;;;;;;;5114740;28;19908;-75
2022/06/02 01:07:18;;;;;;;;;;;;;;;;;;5096021;28;20276;-74
2022/06/02 01:09:44;;;;;;;;;;;;;;;;;;5114126;28;19911;-74
2022/06/02 01:12:10;;;;;;;;;;;;;;;;;;5114612;28;19912;-75
2022/06/02 01:14:36;;;;;;;;;;;;;;;;;;5114375;28;20394;-75
2022/06/02 01:17:02;;;;;;;;;;;;;;;;;;5114510;28;19914;-75
2022/06/02 01:19:28;;;;;;;;;;;;;;;;;;5114301;28;19970;-75
2022/06/02 01:21:54;;;;;;;;;;;;;;;;;;5114289;28;20021;-73
2022/06/02 01:24:21;;;;;;;;;;;;;;;;;;5114280;28;19961;-75
2022/06/02 01:26:48;;;;;;;;;;;;;;;;;;5114183;28;20049;-75
2022/06/02 01:29:13;;;;;;;;;;;;;;;;;;5114214;28;20032;-75
2022/06/02 01:31:39;;;;;;;;;;;;;;;;;;5114331;28;19943;-75
2022/06/02 01:34:05;;;;;;;;;;;;;;;;;;5114382;28;20411;-74
2022/06/02 01:36:31;;;;;;;;;;;;;;;;;;5114081;28;19908;-74
2022/06/02 01:38:57;;;;;;;;;;;;;;;;;;5114375;28;19908;-73
2022/06/02 01:41:23;;;;;;;;;;;;;;;;;;5095797;28;20350;-74
2022/06/02 01:43:49;;;;;;;;;;;;;;;;;;5114321;28;19908;-74
2022/06/02 01:46:15;;;;;;;;;;;;;;;;;;5114117;28;19976;-74
2022/06/02 01:48:41;;;;;;;;;;;;;;;;;;5114026;28;19908;-74
2022/06/02 01:51:07;;;;;;;;;;;;;;;;;;5095616;28;19912;-74
2022/06/02 01:53:33;;;;;;;;;;;;;;;;;;5114485;28;19947;-76
2022/06/02 01:55:58;;;;;;;;;;;;;;;;;;5095693;28;20380;-74
2022/06/02 01:58:24;;;;;;;;;;;;;;;;;;5114436;28;19908;-75
2022/06/02 02:00:50;;;;;;;;;;;;;;;;;;5095573;28;19908;-75
2022/06/02 02:03:16;;;;;;;;;;;;;;;;;;5114143;28;19912;-75
2022/06/02 02:05:42;;;;;;;;;;;;;;;;;;5114127;28;19908;-75
2022/06/02 02:08:08;;;;;;;;;;;;;;;;;;5113804;28;19912;-75
2022/06/02 02:10:34;;;;;;;;;;;;;;;;;;5113702;28;19915;-75
2022/06/02 02:13:00;;;;;;;;;;;;;;;;;;5114034;28;19914;-75
2022/06/02 02:15:26;;;;;;;;;;;;;;;;;;5113647;28;20010;-74
2022/06/02 02:17:52;;;;;;;;;;;;;;;;;;5114277;28;19907;-75
2022/06/02 02:20:18;;;;;;;;;;;;;;;;;;5115139;28;19951;-75
2022/06/02 02:22:44;;;;;;;;;;;;;;;;;;5117589;28;19915;-74
2022/06/02 02:25:10;;;;;;;;;;;;;;;;;;5098996;28;20014;-75
2022/06/02 02:28:02;;;;;;;;;;;;;;;;;;5118087;28;19912;-74
2022/06/02 02:30:23;;;;;;;;;;;;;;;;;;5117227;28;19908;-75
2022/06/02 02:32:49;;;;;;;;;;;;;;;;;;5117887;28;20007;-75
2022/06/02 02:35:14;;;;;;;;;;;;;;;;;;5117329;28;19953;-74
2022/06/02 02:37:40;;;;;;;;;;;;;;;;;;5117565;28;19915;-74
2022/06/02 02:40:06;;;;;;;;;;;;;;;;;;5117263;28;20284;-76
2022/06/02 02:42:32;;;;;;;;;;;;;;;;;;5117209;28;19911;-75
2022/06/02 02:44:58;;;;;;;;;;;;;;;;;;5117414;28;19957;-75
2022/06/02 02:47:24;;;;;;;;;;;;;;;;;;5098775;28;20284;-75
2022/06/02 02:49:50;;;;;;;;;;;;;;;;;;5117342;28;19943;-75
2022/06/02 02:52:16;;;;;;;;;;;;;;;;;;5116960;28;20020;-74
2022/06/02 02:54:42;;;;;;;;;;;;;;;;;;5098691;28;19917;-74
2022/06/02 02:57:08;;;;;;;;;;;;;;;;;;5117490;28;19907;-75
2022/06/02 02:59:33;;;;;;;;;;;;;;;;;;5116866;28;20306;-75
2022/06/02 03:01:59;;;;;;;;;;;;;;;;;;5116866;28;19915;-74
2022/06/02 03:04:25;;;;;;;;;;;;;;;;;;5117098;28;19908;-74
2022/06/02 03:06:54;;;;;;;;;;;;;;;;;;5116710;28;19915;-75
2022/06/02 03:09:20;;;;;;;;;;;;;;;;;;5098399;28;19988;-75
2022/06/02 03:11:46;;;;;;;;;;;;;;;;;;5116831;28;19962;-75
2022/06/02 03:14:12;;;;;;;;;;;;;;;;;;5116869;28;19908;-74
2022/06/02 03:16:38;;;;;;;;;;;;;;;;;;5116485;28;19908;-75
2022/06/02 03:19:04;;;;;;;;;;;;;;;;;;5116546;28;19961;-75
2022/06/02 03:21:30;;;;;;;;;;;;;;;;;;5116471;28;19912;-76
2022/06/02 03:23:56;;;;;;;;;;;;;;;;;;5116694;28;19968;-75
2022/06/02 03:26:21;;;;;;;;;;;;;;;;;;5116150;28;20368;-75
2022/06/02 03:28:47;;;;;;;;;;;;;;;;;;5116270;28;19951;-75
2022/06/02 03:31:13;;;;;;;;;;;;;;;;;;5115878;28;20360;-74
2022/06/02 03:33:39;;;;;;;;;;;;;;;;;;5116194;28;19908;-75
2022/06/02 03:36:05;;;;;;;;;;;;;;;;;;5116480;28;20280;-74
2022/06/02 03:38:31;;;;;;;;;;;;;;;;;;5116107;28;19908;-75
2022/06/02 03:40:57;;;;;;;;;;;;;;;;;;5097812;28;19915;-74
2022/06/02 03:43:23;;;;;;;;;;;;;;;;;;5116051;28;19908;-75
2022/06/02 03:45:49;;;;;;;;;;;;;;;;;;5116549;28;20378;-74
2022/06/02 03:48:14;;;;;;;;;;;;;;;;;;5116211;28;19908;-74
2022/06/02 03:50:40;;;;;;;;;;;;;;;;;;5115823;28;20313;-75
2022/06/02 03:53:06;;;;;;;;;;;;;;;;;;5115814;28;19911;-75
2022/06/02 03:55:32;;;;;;;;;;;;;;;;;;5115782;28;19914;-75
2022/06/02 03:57:58;;;;;;;;;;;;;;;;;;5115766;28;20278;-75
2022/06/02 04:00:24;;;;;;;;;;;;;;;;;;5097394;28;19995;-75
2022/06/02 04:02:50;;;;;;;;;;;;;;;;;;5116164;28;19939;-74
2022/06/02 04:05:16;;;;;;;;;;;;;;;;;;5115591;28;19912;-75
2022/06/02 04:07:42;;;;;;;;;;;;;;;;;;5116083;28;19907;-75
2022/06/02 04:10:07;;;;;;;;;;;;;;;;;;5115469;28;19908;-74
2022/06/02 04:15:18;;;;;;;;;;;;;;;;;;5115706;28;19915;-75
2022/06/02 04:17:44;;;;;;;;;;;;;;;;;;5115626;28;19907;-75
2022/06/02 04:22:54;;;;;;;;;;;;;;;;;;5115003;28;19915;-74
2022/06/02 04:25:20;;;;;;;;;;;;;;;;;;5115105;28;20284;-75
2022/06/02 04:27:46;;;;;;;;;;;;;;;;;;5115446;28;19916;-75
2022/06/02 04:30:12;;;;;;;;;;;;;;;;;;5096798;28;19908;-75
2022/06/02 04:32:41;;;;;;;;;;;;;;;;;;5115266;28;19919;-75
2022/06/02 04:35:07;;;;;;;;;;;;;;;;;;5115016;28;19907;-75
2022/06/02 04:37:33;;;;;;;;;;;;;;;;;;5115023;28;20356;-74
2022/06/02 04:39:59;;;;;;;;;;;;;;;;;;5096650;28;19954;-75
2022/06/02 04:42:25;;;;;;;;;;;;;;;;;;5114967;28;20267;-74
2022/06/02 04:44:51;;;;;;;;;;;;;;;;;;5114667;28;19907;-74
2022/06/02 04:47:18;;;;;;;;;;;;;;;;;;5096553;28;19911;-75
2022/06/02 04:49:44;;;;;;;;;;;;;;;;;;5114773;28;19908;-74
2022/06/02 04:52:11;;;;;;;;;;;;;;;;;;5114920;28;19919;-73
2022/06/02 04:54:36;;;;;;;;;;;;;;;;;;5114974;28;19912;-74
2022/06/02 04:57:02;;;;;;;;;;;;;;;;;;5114647;28;19953;-76
2022/06/02 04:59:28;;;;;;;;;;;;;;;;;;5114802;28;19930;-75
2022/06/02 05:01:54;;;;;;;;;;;;;;;;;;5114532;28;20003;-75
2022/06/02 05:04:20;;;;;;;;;;;;;;;;;;5096224;28;20352;-75
2022/06/02 05:06:46;;;;;;;;;;;;;;;;;;5114834;28;19919;-74
2022/06/02 05:09:12;;;;;;;;;;;;;;;;;;5114405;28;19908;-76
2022/06/02 05:11:38;;;;;;;;;;;;;;;;;;5114898;28;20387;-74
2022/06/02 05:14:04;;;;;;;;;;;;;;;;;;5114429;28;19912;-75
2022/06/02 05:16:29;;;;;;;;;;;;;;;;;;5114395;28;19968;-75
2022/06/02 05:18:55;;;;;;;;;;;;;;;;;;5096067;28;19943;-74
2022/06/02 05:21:21;;;;;;;;;;;;;;;;;;5114318;28;19939;-74
2022/06/02 05:23:48;;;;;;;;;;;;;;;;;;5114554;28;19931;-74
2022/06/02 05:26:14;;;;;;;;;;;;;;;;;;5095701;28;19919;-75
2022/06/02 05:28:40;;;;;;;;;;;;;;;;;;5114447;28;19915;-74
2022/06/02 05:31:06;;;;;;;;;;;;;;;;;;5095805;28;19916;-74
2022/06/02 05:33:32;;;;;;;;;;;;;;;;;;5095855;28;19944;-75
2022/06/02 05:35:58;;;;;;;;;;;;;;;;;;5114377;28;20052;-75
2022/06/02 05:38:24;;;;;;;;;;;;;;;;;;5114405;28;19915;-74
2022/06/02 05:40:49;;;;;;;;;;;;;;;;;;5114061;28;19931;-75
2022/06/02 05:43:15;;;;;;;;;;;;;;;;;;5114622;28;19911;-73
2022/06/02 05:45:41;;;;;;;;;;;;;;;;;;5095506;28;19908;-75
2022/06/02 05:48:07;;;;;;;;;;;;;;;;;;5114282;28;19907;-75
2022/06/02 05:50:33;;;;;;;;;;;;;;;;;;5113965;28;20383;-76
2022/06/02 05:53:00;;;;;;;;;;;;;;;;;;5113875;28;19912;-74
2022/06/02 05:55:25;;;;;;;;;;;;;;;;;;5117096;28;19907;-75
2022/06/02 05:57:51;;;;;;;;;;;;;;;;;;5099811;28;19915;-75
2022/06/02 06:00:17;;;;;;;;;;;;;;;;;;5118066;28;19908;-75
2022/06/02 06:02:43;;;;;;;;;;;;;;;;;;5118272;28;19908;-75
2022/06/02 06:05:09;;;;;;;;;;;;;;;;;;5118265;28;20356;-74
2022/06/02 06:07:35;;;;;;;;;;;;;;;;;;5117927;28;19908;-75
2022/06/02 06:10:01;;;;;;;;;;;;;;;;;;5099547;28;19915;-75
2022/06/02 06:12:27;;;;;;;;;;;;;;;;;;5118007;28;19972;-75
2022/06/02 06:14:53;;;;;;;;;;;;;;;;;;5118008;28;20006;-75
2022/06/02 06:17:18;;;;;;;;;;;;;;;;;;5117701;28;19998;-74
2022/06/02 06:19:44;;;;;;;;;;;;;;;;;;5117660;28;19908;-74
2022/06/02 06:22:10;;;;;;;;;;;;;;;;;;5117625;28;19951;-73
2022/06/02 06:24:36;;;;;;;;;;;;;;;;;;5117583;28;19912;-74
2022/06/02 06:27:02;;;;;;;;;;;;;;;;;;5117115;28;19967;-75
2022/06/02 06:29:28;;;;;;;;;;;;;;;;;;5117787;28;19998;-76
2022/06/02 06:31:54;;;;;;;;;;;;;;;;;;5117644;28;20390;-75
2022/06/02 06:34:20;;;;;;;;;;;;;;;;;;5117375;28;19912;-75
2022/06/02 06:36:46;;;;;;;;;;;;;;;;;;5117917;28;20391;-75
2022/06/02 06:39:13;;;;;;;;;;;;;;;;;;5117278;28;19907;-75
2022/06/02 06:41:39;;;;;;;;;;;;;;;;;;5117276;28;19956;-74
2022/06/02 06:44:05;;;;;;;;;;;;;;;;;;5117195;28;20002;-74
2022/06/02 06:46:31;;;;;;;;;;;;;;;;;;5117183;28;19914;-74
2022/06/02 06:48:57;;;;;;;;;;;;;;;;;;5098835;28;19907;-74
2022/06/02 06:51:23;;;;;;;;;;;;;;;;;;5117568;28;19929;-74
2022/06/02 06:53:49;;;;;;;;;;;;;;;;;;5097779;28;19957;-74
2022/06/02 06:56:15;;;;;;;;;;;;;;;;;;5114655;28;19964;-75
2022/06/02 06:58:40;;;;;;;;;;;;;;;;;;5115808;28;20337;-74
2022/06/02 07:01:06;;;;;;;;;;;;;;;;;;5117108;28;19963;-76
2022/06/02 07:03:32;;;;;;;;;;;;;;;;;;5116801;28;19907;-77
2022/06/02 07:05:58;;;;;;;;;;;;;;;;;;5113701;28;19946;-75
2022/06/02 07:08:24;;;;;;;;;;;;;;;;;;5115216;28;19950;-76
2022/06/02 07:10:50;;;;;;;;;;;;;;;;;;5116950;28;19912;-78
2022/06/02 07:13:17;;;;;;;;;;;;;;;;;;5097879;28;19912;-78
2022/06/02 07:15:44;;;;;;;;;;;;;;;;;;5116562;28;19908;-77
2022/06/02 07:18:10;;;;;;;;;;;;;;;;;;5116575;28;19908;-79
2022/06/02 07:20:36;;;;;;;;;;;;;;;;;;5097966;28;19911;-76
2022/06/02 07:23:02;;;;;;;;;;;;;;;;;;5111439;28;19912;-78
2022/06/02 07:25:28;;;;;;;;;;;;;;;;;;5113564;28;20408;-77
2022/06/02 07:27:54;;;;;;;;;;;;;;;;;;5116053;28;19990;-76
2022/06/02 07:30:20;;;;;;;;;;;;;;;;;;5097770;28;19909;-78
2022/06/02 07:32:46;;;;;;;;;;;;;;;;;;5115926;28;19915;-78
2022/06/02 07:35:16;;;;;;;;;;;;;;;;;;5115370;28;19918;-77
2022/06/02 07:37:42;;;;;;;;;;;;;;;;;;5115410;28;20007;-78
2022/06/02 07:40:08;;;;;;;;;;;;;;;;;;5116061;28;19943;-77
2022/06/02 07:42:34;;;;;;;;;;;;;;;;;;5116057;28;19908;-73
2022/06/02 07:45:00;;;;;;;;;;;;;;;;;;5116305;28;19956;-77
2022/06/02 07:47:26;;;;;;;;;;;;;;;;;;5113410;28;19941;-73
2022/06/02 07:49:52;;;;;;;;;;;;;;;;;;5115722;28;20386;-76
2022/06/02 07:52:18;;;;;;;;;;;;;;;;;;5115707;28;19912;-75
2022/06/02 07:54:44;;;;;;;;;;;;;;;;;;5112128;28;20382;-75
2022/06/02 07:57:10;;;;;;;;;;;;;;;;;;5113601;28;19912;-73
2022/06/02 07:59:37;;;;;;;;;;;;;;;;;;5115664;28;19960;-75
2022/06/02 08:02:03;;;;;;;;;;;;;;;;;;5097365;28;19935;-76
2022/06/02 08:04:29;;;;;;;;;;;;;;;;;;5115001;28;19966;-75
2022/06/02 08:06:54;;;;;;;;;;;;;;;;;;5094625;28;20381;-77
2022/06/02 08:09:20;;;;;;;;;;;;;;;;;;5115722;28;19908;-76
2022/06/02 08:11:46;;;;;;;;;;;;;;;;;;5115390;28;19938;-74
2022/06/02 08:14:12;;;;;;;;;;;;;;;;;;5114620;28;19912;-75
2022/06/02 08:16:38;;;;;;;;;;;;;;;;;;5110387;28;19918;-74
2022/06/02 08:19:04;;;;;;;;;;;;;;;;;;5113383;28;20002;-76
2022/06/02 08:21:30;;;;;;;;;;;;;;;;;;5093601;28;19912;-75
2022/06/02 08:23:56;;;;;;;;;;;;;;;;;;5096982;28;19919;-75
2022/06/02 08:26:22;;;;;;;;;;;;;;;;;;5095655;28;20065;-76
2022/06/02 08:28:48;;;;;;;;;;;;;;;;;;5112409;28;20003;-74
2022/06/02 08:31:14;;;;;;;;;;;;;;;;;;5114603;28;19985;-73
2022/06/02 08:33:40;;;;;;;;;;;;;;;;;;5113952;28;19998;-73
2022/06/02 08:36:06;;;;;;;;;;;;;;;;;;5114445;28;19908;-74
2022/06/02 08:38:33;;;;;;;;;;;;;;;;;;5113664;28;19908;-73
2022/06/02 08:40:59;;;;;;;;;;;;;;;;;;5114037;28;19908;-75
2022/06/02 08:43:25;;;;;;;;;;;;;;;;;;5113905;28;19908;-73
2022/06/02 08:45:51;;;;;;;;;;;;;;;;;;5113876;28;20265;-75
2022/06/02 08:48:17;;;;;;;;;;;;;;;;;;5112348;28;19916;-74
2022/06/02 08:50:43;;;;;;;;;;;;;;;;;;5112666;28;19986;-75
2022/06/02 08:53:09;;;;;;;;;;;;;;;;;;5109489;28;19923;-74
2022/06/02 08:55:35;;;;;;;;;;;;;;;;;;5113725;28;19971;-75
2022/06/02 08:58:01;;;;;;;;;;;;;;;;;;5111509;28;19953;-74
2022/06/02 09:00:27;;;;;;;;;;;;;;;;;;5114575;28;19908;-76
2022/06/02 09:02:53;;;;;;;;;;;;;;;;;;5114516;28;20280;-76
2022/06/02 09:05:18;;;;;;;;;;;;;;;;;;5113593;28;20391;-75
2022/06/02 09:07:44;;;;;;;;;;;;;;;;;;5111901;28;19919;-73
2022/06/02 09:10:10;;;;;;;;;;;;;;;;;;5110054;28;19916;-75
2022/06/02 09:12:36;;;;;;;;;;;;;;;;;;5113337;28;19920;-76
2022/06/02 09:15:02;;;;;;;;;;;;;;;;;;5114575;28;19907;-76
2022/06/02 09:17:28;;;;;;;;;;;;;;;;;;5096037;28;20356;-74
2022/06/02 09:19:54;;;;;;;;;;;;;;;;;;5112564;28;20006;-78
2022/06/02 09:22:20;;;;;;;;;;;;;;;;;;5114800;28;19908;-77
2022/06/02 09:24:46;;;;;;;;;;;;;;;;;;5114605;28;19986;-77
2022/06/02 09:27:12;;;;;;;;;;;;;;;;;;5113153;28;20308;-76
2022/06/02 09:29:38;;;;;;;;;;;;;;;;;;5093443;28;19944;-76
2022/06/02 09:32:04;;;;;;;;;;;;;;;;;;5106069;28;19941;-76
2022/06/02 09:34:31;;;;;;;;;;;;;;;;;;5112773;28;19990;-76
2022/06/02 09:36:57;;;;;;;;;;;;;;;;;;5095589;28;19912;-74
2022/06/02 09:39:23;;;;;;;;;;;;;;;;;;5112399;28;19908;-74
2022/06/02 09:41:49;;;;;;;;;;;;;;;;;;5093659;28;19915;-75
2022/06/02 09:44:15;;;;;;;;;;;;;;;;;;5106413;28;20379;-75
2022/06/02 09:46:41;;;;;;;;;;;;;;;;;;5114561;28;20324;-75
2022/06/02 09:49:07;;;;;;;;;;;;;;;;;;5113983;28;19951;-74
2022/06/02 09:51:32;;;;;;;;;;;;;;;;;;5113220;28;20368;-76
2022/06/02 09:53:59;;;;;;;;;;;;;;;;;;5113995;28;19907;-75
2022/06/02 09:56:25;;;;;;;;;;;;;;;;;;5110848;28;19918;-75
2022/06/02 09:58:51;;;;;;;;;;;;;;;;;;5114000;28;19990;-70
2022/06/02 10:01:17;;;;;;;;;;;;;;;;;;5113044;28;19916;-76
2022/06/02 10:03:43;;;;;;;;;;;;;;;;;;5111376;28;20386;-77
2022/06/02 10:06:09;;;;;;;;;;;;;;;;;;5095587;28;19908;-79
2022/06/02 10:08:35;;;;;;;;;;;;;;;;;;5110611;28;19912;-77
2022/06/02 10:11:01;;;;;;;;;;;;;;;;;;5095486;28;19908;-77
2022/06/02 10:13:27;;;;;;;;;;;;;;;;;;5111343;28;20382;-81
2022/06/02 10:15:53;;;;;;;;;;;;;;;;;;5111992;28;19964;-76
2022/06/02 10:18:19;;;;;;;;;;;;;;;;;;5111712;28;19912;-77
2022/06/02 10:20:45;;;;;;;;;;;;;;;;;;5093617;28;19919;-79
2022/06/02 10:23:11;;;;;;;;;;;;;;;;;;5093893;28;20405;-78
2022/06/02 10:25:37;;;;;;;;;;;;;;;;;;5113286;28;20284;-79
2022/06/02 10:28:03;;;;;;;;;;;;;;;;;;5113848;28;19911;-81
2022/06/02 10:30:29;;;;;;;;;;;;;;;;;;5112449;28;19957;-75
2022/06/02 10:32:54;;;;;;;;;;;;;;;;;;5109128;28;19920;-74
2022/06/02 10:35:20;;;;;;;;;;;;;;;;;;5113158;28;19937;-75
2022/06/02 10:37:46;;;;;;;;;;;;;;;;;;5112154;28;19919;-75
2022/06/02 10:40:12;;;;;;;;;;;;;;;;;;5114158;28;20260;-74
2022/06/02 10:42:38;;;;;;;;;;;;;;;;;;5116350;28;19908;-74
2022/06/02 10:45:04;;;;;;;;;;;;;;;;;;5117210;28;19915;-73
2022/06/02 10:47:30;;;;;;;;;;;;;;;;;;5117228;28;20265;-74
2022/06/02 10:49:56;;;;;;;;;;;;;;;;;;5117156;28;19912;-74
2022/06/02 10:52:22;;;;;;;;;;;;;;;;;;5117578;28;19912;-75
2022/06/02 10:54:47;;;;;;;;;;;;;;;;;;5098701;28;19908;-74
2022/06/02 10:57:13;;;;;;;;;;;;;;;;;;5098653;28;20307;-74
2022/06/02 10:59:39;;;;;;;;;;;;;;;;;;5116972;28;20002;-74
2022/06/02 11:02:05;;;;;;;;;;;;;;;;;;5116895;28;19943;-75
2022/06/02 11:04:31;;;;;;;;;;;;;;;;;;5098516;28;20348;-74
2022/06/02 11:06:57;;;;;;;;;;;;;;;;;;5098452;28;19908;-75
2022/06/02 11:09:23;;;;;;;;;;;;;;;;;;5117277;28;20371;-74
2022/06/02 11:11:49;;;;;;;;;;;;;;;;;;5116616;28;19919;-75
2022/06/02 11:14:17;;;;;;;;;;;;;;;;;;5116649;28;19907;-74
2022/06/02 11:16:43;;;;;;;;;;;;;;;;;;5116645;28;19914;-74
2022/06/02 11:19:09;;;;;;;;;;;;;;;;;;5116563;28;19908;-74
2022/06/02 11:21:36;;;;;;;;;;;;;;;;;;5116812;28;19931;-75
2022/06/02 11:24:03;;;;;;;;;;;;;;;;;;5116770;28;19908;-74
2022/06/02 11:26:29;;;;;;;;;;;;;;;;;;5097875;28;20379;-74
2022/06/02 11:28:54;;;;;;;;;;;;;;;;;;5116398;28;19912;-75
2022/06/02 11:31:21;;;;;;;;;;;;;;;;;;5116286;28;19968;-74
2022/06/02 11:33:46;;;;;;;;;;;;;;;;;;5116539;28;20329;-74
2022/06/02 11:36:12;;;;;;;;;;;;;;;;;;5116221;28;19907;-73
2022/06/02 11:38:38;;;;;;;;;;;;;;;;;;5116193;28;19915;-75
2022/06/02 11:41:04;;;;;;;;;;;;;;;;;;5116712;28;20329;-74
2022/06/02 11:43:30;;;;;;;;;;;;;;;;;;5116340;28;19931;-74
2022/06/02 11:45:56;;;;;;;;;;;;;;;;;;5116356;28;19912;-75
2022/06/02 11:48:22;;;;;;;;;;;;;;;;;;5115980;28;19915;-74
2022/06/02 11:50:48;;;;;;;;;;;;;;;;;;5115957;28;20386;-74
2022/06/02 11:53:14;;;;;;;;;;;;;;;;;;5115945;28;19960;-74
2022/06/02 11:55:39;;;;;;;;;;;;;;;;;;5116101;28;20383;-74
2022/06/02 11:58:05;;;;;;;;;;;;;;;;;;5116356;28;19907;-74
2022/06/02 12:00:31;;;;;;;;;;;;;;;;;;5115695;28;20261;-73
2022/06/02 12:02:57;;;;;;;;;;;;;;;;;;5097389;28;19907;-73
2022/06/02 12:05:23;;;;;;;;;;;;;;;;;;5115674;28;19915;-74
2022/06/02 12:07:49;;;;;;;;;;;;;;;;;;5115882;28;19957;-74
2022/06/02 12:10:15;;;;;;;;;;;;;;;;;;5115564;28;20292;-73
2022/06/02 12:12:41;;;;;;;;;;;;;;;;;;5114957;28;19960;-74
2022/06/02 12:15:07;;;;;;;;;;;;;;;;;;5094932;28;19962;-76
2022/06/02 12:17:33;;;;;;;;;;;;;;;;;;5115355;28;20283;-75
2022/06/02 12:19:59;;;;;;;;;;;;;;;;;;5096255;28;19956;-76
2022/06/02 12:22:25;;;;;;;;;;;;;;;;;;5097014;28;20318;-75
2022/06/02 12:24:51;;;;;;;;;;;;;;;;;;5114389;28;19912;-79
2022/06/02 12:27:17;;;;;;;;;;;;;;;;;;5115189;28;19915;-78
2022/06/02 12:29:43;;;;;;;;;;;;;;;;;;5099250;28;19992;-74
2022/06/02 12:32:09;;;;;;;;;;;;;;;;;;5094668;28;19916;-75
2022/06/02 12:34:35;;;;;;;;;;;;;;;;;;5076660;28;19908;-76
2022/06/02 12:37:01;;;;;;;;;;;;;;;;;;5095152;28;19908;-76
2022/06/02 12:39:27;;;;;;;;;;;;;;;;;;5079936;28;20010;-77
2022/06/02 12:41:53;;;;;;;;;;;;;;;;;;5098029;28;20415;-76
2022/06/02 12:44:19;;;;;;;;;;;;;;;;;;5115179;28;19908;-76
2022/06/02 12:46:45;;;;;;;;;;;;;;;;;;5114999;28;19999;-75
2022/06/02 12:49:10;;;;;;;;;;;;;;;;;;5114207;28;19908;-76
2022/06/02 12:51:38;;;;;;;;;;;;;;;;;;5096439;28;20394;-76
2022/06/02 12:54:04;;;;;;;;;;;;;;;;;;5115383;28;19915;-76
2022/06/02 12:56:31;;;;;;;;;;;;;;;;;;5096308;28;19908;-76
2022/06/02 12:58:57;;;;;;;;;;;;;;;;;;5095485;28;19961;-77
2022/06/02 13:01:23;;;;;;;;;;;;;;;;;;5096537;28;19912;-78
2022/06/02 13:03:49;;;;;;;;;;;;;;;;;;5095911;28;19908;-80
2022/06/02 13:06:15;;;;;;;;;;;;;;;;;;5096253;28;19930;-74
2022/06/02 13:08:41;;;;;;;;;;;;;;;;;;5112432;28;19919;-78
2022/06/02 13:11:07;;;;;;;;;;;;;;;;;;5096113;28;19912;-77
2022/06/02 13:13:33;;;;;;;;;;;;;;;;;;5114313;28;19908;-75
2022/06/02 13:15:59;;;;;;;;;;;;;;;;;;5096096;28;20278;-74
2022/06/02 13:18:25;;;;;;;;;;;;;;;;;;5113950;28;19916;-75
2022/06/02 13:20:52;;;;;;;;;;;;;;;;;;5114174;28;20003;-75
2022/06/02 13:23:18;;;;;;;;;;;;;;;;;;5114244;28;19995;-76
2022/06/02 13:25:46;;;;;;;;;;;;;;;;;;5095794;28;20366;-76
2022/06/02 13:28:13;;;;;;;;;;;;;;;;;;5113221;28;19998;-77
2022/06/02 13:30:39;;;;;;;;;;;;;;;;;;5114586;28;20395;-75
2022/06/02 13:33:05;;;;;;;;;;;;;;;;;;5114675;28;19911;-74
2022/06/02 13:35:31;;;;;;;;;;;;;;;;;;5113229;28;19951;-74
2022/06/02 13:37:57;;;;;;;;;;;;;;;;;;5114141;28;20333;-74
2022/06/02 13:40:23;;;;;;;;;;;;;;;;;;5094909;28;19915;-77
2022/06/02 13:42:49;;;;;;;;;;;;;;;;;;5114072;28;19914;-77
2022/06/02 13:45:15;;;;;;;;;;;;;;;;;;5114425;28;19907;-74
2022/06/02 13:47:42;;;;;;;;;;;;;;;;;;5113976;28;19908;-74
2022/06/02 13:50:07;;;;;;;;;;;;;;;;;;5113180;28;20007;-75
2022/06/02 13:52:33;;;;;;;;;;;;;;;;;;5112676;28;20342;-75
2022/06/02 13:57:46;;;;;;;;;;;;;;;;;;5113082;28;19964;-76
2022/06/02 14:00:11;;;;;;;;;;;;;;;;;;5114012;28;19915;-77
2022/06/02 14:02:38;;;;;;;;;;;;;;;;;;5094898;28;19911;-76
2022/06/02 14:05:04;;;;;;;;;;;;;;;;;;5112890;28;19918;-77
2022/06/02 14:07:30;;;;;;;;;;;;;;;;;;5112433;28;20010;-78
2022/06/02 14:09:56;;;;;;;;;;;;;;;;;;5114218;28;19956;-76
2022/06/02 14:12:21;;;;;;;;;;;;;;;;;;5112217;28;19958;-71
2022/06/02 14:14:47;;;;;;;;;;;;;;;;;;5112391;28;19912;-76
2022/06/02 14:17:13;;;;;;;;;;;;;;;;;;5116541;28;19908;-76
2022/06/02 14:19:39;;;;;;;;;;;;;;;;;;5118076;28;19944;-75
2022/06/02 14:22:05;;;;;;;;;;;;;;;;;;5117698;28;19969;-75
2022/06/02 14:24:31;;;;;;;;;;;;;;;;;;5116307;28;19918;-75
2022/06/02 14:26:57;;;;;;;;;;;;;;;;;;5098242;28;20002;-75
2022/06/02 14:29:24;;;;;;;;;;;;;;;;;;5115171;28;19934;-75
2022/06/02 14:31:51;;;;;;;;;;;;;;;;;;5085932;28;20346;-75
2022/06/02 14:34:17;;;;;;;;;;;;;;;;;;5112035;28;19955;-77
2022/06/02 14:36:43;;;;;;;;;;;;;;;;;;5091780;28;19954;-72
2022/06/02 14:39:09;;;;;;;;;;;;;;;;;;5115545;28;20002;-71
2022/06/02 14:41:35;;;;;;;;;;;;;;;;;;5117295;28;20360;-71
2022/06/02 14:44:01;;;;;;;;;;;;;;;;;;5117906;28;19908;-71
2022/06/02 14:46:27;;;;;;;;;;;;;;;;;;5098936;28;19918;-72
2022/06/02 14:48:53;;;;;;;;;;;;;;;;;;5099070;28;19908;-72
2022/06/02 14:51:18;;;;;;;;;;;;;;;;;;5117612;28;19908;-73
2022/06/02 14:53:45;;;;;;;;;;;;;;;;;;5117373;28;19946;-73
2022/06/02 14:56:11;;;;;;;;;;;;;;;;;;5098830;28;20292;-71
2022/06/02 14:58:37;;;;;;;;;;;;;;;;;;5098777;28;19911;-72
2022/06/02 15:01:03;;;;;;;;;;;;;;;;;;5098594;28;19969;-71
2022/06/02 15:03:29;;;;;;;;;;;;;;;;;;5098588;28;19907;-70
2022/06/02 15:05:55;;;;;;;;;;;;;;;;;;5117131;28;19915;-72
2022/06/02 15:08:21;;;;;;;;;;;;;;;;;;5117112;28;20399;-72
2022/06/02 15:10:47;;;;;;;;;;;;;;;;;;5116983;28;19912;-71
2022/06/02 15:13:15;;;;;;;;;;;;;;;;;;5116666;28;19919;-73
2022/06/02 15:15:42;;;;;;;;;;;;;;;;;;5116625;28;19972;-71
2022/06/02 15:18:08;;;;;;;;;;;;;;;;;;5117206;28;20368;-73
2022/06/02 15:20:34;;;;;;;;;;;;;;;;;;5116557;28;19908;-73
2022/06/02 15:23:01;;;;;;;;;;;;;;;;;;5116854;28;19908;-73
2022/06/02 15:25:27;;;;;;;;;;;;;;;;;;5116544;28;19931;-74
2022/06/02 15:27:53;;;;;;;;;;;;;;;;;;5116219;28;19908;-73
2022/06/02 15:30:19;;;;;;;;;;;;;;;;;;5116369;28;19907;-72
2022/06/02 15:32:45;;;;;;;;;;;;;;;;;;5116243;28;19934;-72
2022/06/02 15:35:11;;;;;;;;;;;;;;;;;;5116269;28;19908;-71
2022/06/02 15:37:37;;;;;;;;;;;;;;;;;;5116249;28;19912;-71
2022/06/02 15:40:02;;;;;;;;;;;;;;;;;;5097913;28;20296;-72
2022/06/02 15:42:28;;;;;;;;;;;;;;;;;;5116119;28;20391;-72
2022/06/02 15:44:54;;;;;;;;;;;;;;;;;;5116177;28;19911;-71
2022/06/02 15:47:20;;;;;;;;;;;;;;;;;;5116323;28;20334;-72
2022/06/02 15:49:46;;;;;;;;;;;;;;;;;;5115839;28;19908;-71
2022/06/02 15:52:12;;;;;;;;;;;;;;;;;;5096409;28;20009;-72
2022/06/02 15:54:38;;;;;;;;;;;;;;;;;;5115407;28;19908;-72
2022/06/02 15:57:04;;;;;;;;;;;;;;;;;;5115607;28;19908;-73
2022/06/02 15:59:29;;;;;;;;;;;;;;;;;;5115625;28;19912;-73
2022/06/02 16:01:55;;;;;;;;;;;;;;;;;;5097512;28;19908;-72
2022/06/02 16:04:21;;;;;;;;;;;;;;;;;;5116046;28;19915;-72
2022/06/02 16:06:48;;;;;;;;;;;;;;;;;;5115759;28;19912;-73
2022/06/02 16:11:58;;;;;;;;;;;;;;;;;;5115550;28;19920;-71
2022/06/02 16:14:24;;;;;;;;;;;;;;;;;;5115513;28;20288;-72
2022/06/02 16:16:51;;;;;;;;;;;;;;;;;;5115625;28;19990;-73
2022/06/02 16:19:17;;;;;;;;;;;;;;;;;;5116003;28;19911;-72
2022/06/02 16:21:43;;;;;;;;;;;;;;;;;;5115387;28;19914;-72
2022/06/02 16:24:11;;;;;;;;;;;;;;;;;;5115333;28;19908;-70
2022/06/02 16:26:36;;;;;;;;;;;;;;;;;;5114926;28;19999;-71
2022/06/02 16:29:02;;;;;;;;;;;;;;;;;;5115262;28;19951;-72
2022/06/02 16:31:29;;;;;;;;;;;;;;;;;;5115688;28;20369;-71
2022/06/02 16:33:55;;;;;;;;;;;;;;;;;;5115453;28;20276;-72
2022/06/02 16:36:23;;;;;;;;;;;;;;;;;;5096158;28;21309;-71
2022/06/02 16:38:49;;;;;;;;;;;;;;;;;;5114767;28;19933;-71
2022/06/02 16:41:15;;;;;;;;;;;;;;;;;;5096767;28;19908;-71
2022/06/02 16:43:40;;;;;;;;;;;;;;;;;;5096663;28;19915;-72
2022/06/02 16:46:06;;;;;;;;;;;;;;;;;;5115226;28;19918;-72
2022/06/02 16:48:32;;;;;;;;;;;;;;;;;;5114882;28;19908;-72
2022/06/02 16:50:58;;;;;;;;;;;;;;;;;;5115394;28;20378;-70